sensor_id;sensor_type;location;lat;lon;timestamp;temperature;humidity
51029;DHT22;37054;52.054;8.600;2023-07-13T00:00:38;21.00;46.60
51029;DHT22;37054;52.054;8.600;2023-07-13T00:03:04;21.00;46.40
51029;DHT22;37054;52.054;8.600;2023-07-13T00:05:30;20.90;46.80
51029;DHT22;37054;52.054;8.600;2023-07-13T00:07:56;20.80;46.80
51029;DHT22;37054;52.054;8.600;2023-07-13T00:10:21;20.80;46.80
51029;DHT22;37054;52.054;8.600;2023-07-13T00:12:47;20.70;46.80
51029;DHT22;37054;52.054;8.600;2023-07-13T00:15:17;20.70;47.00
51029;DHT22;37054;52.054;8.600;2023-07-13T00:17:51;20.60;47.20
51029;DHT22;37054;52.054;8.600;2023-07-13T00:20:17;20.60;47.40
51029;DHT22;37054;52.054;8.600;2023-07-13T00:22:42;20.50;47.50
51029;DHT22;37054;52.054;8.600;2023-07-13T00:25:11;20.50;47.50
51029;DHT22;37054;52.054;8.600;2023-07-13T00:27:37;20.40;47.50
51029;DHT22;37054;52.054;8.600;2023-07-13T00:30:02;20.40;47.90
51029;DHT22;37054;52.054;8.600;2023-07-13T00:32:28;20.30;47.90
51029;DHT22;37054;52.054;8.600;2023-07-13T00:34:55;20.30;47.90
51029;DHT22;37054;52.054;8.600;2023-07-13T00:37:20;20.30;48.00
51029;DHT22;37054;52.054;8.600;2023-07-13T00:39:46;20.20;48.00
51029;DHT22;37054;52.054;8.600;2023-07-13T00:42:11;20.20;48.00
51029;DHT22;37054;52.054;8.600;2023-07-13T00:44:37;20.20;48.10
51029;DHT22;37054;52.054;8.600;2023-07-13T00:47:04;20.20;48.50
51029;DHT22;37054;52.054;8.600;2023-07-13T00:49:30;20.20;48.40
51029;DHT22;37054;52.054;8.600;2023-07-13T00:52:15;20.30;48.40
51029;DHT22;37054;52.054;8.600;2023-07-13T00:54:41;20.30;48.30
51029;DHT22;37054;52.054;8.600;2023-07-13T00:57:09;20.40;48.60
51029;DHT22;37054;52.054;8.600;2023-07-13T00:59:36;20.50;48.60
51029;DHT22;37054;52.054;8.600;2023-07-13T01:02:02;20.60;48.60
51029;DHT22;37054;52.054;8.600;2023-07-13T01:04:27;20.70;48.50
51029;DHT22;37054;52.054;8.600;2023-07-13T01:06:53;20.70;48.30
51029;DHT22;37054;52.054;8.600;2023-07-13T01:09:19;20.70;48.20
51029;DHT22;37054;52.054;8.600;2023-07-13T01:11:45;20.70;48.00
51029;DHT22;37054;52.054;8.600;2023-07-13T01:14:10;20.60;48.10
51029;DHT22;37054;52.054;8.600;2023-07-13T01:16:36;20.60;48.00
51029;DHT22;37054;52.054;8.600;2023-07-13T01:19:08;20.50;48.00
51029;DHT22;37054;52.054;8.600;2023-07-13T01:21:37;20.50;47.90
51029;DHT22;37054;52.054;8.600;2023-07-13T01:24:08;20.40;48.10
51029;DHT22;37054;52.054;8.600;2023-07-13T01:26:34;20.40;48.20
51029;DHT22;37054;52.054;8.600;2023-07-13T01:28:59;20.40;48.30
51029;DHT22;37054;52.054;8.600;2023-07-13T01:31:24;20.40;48.30
51029;DHT22;37054;52.054;8.600;2023-07-13T01:33:50;20.40;48.60
51029;DHT22;37054;52.054;8.600;2023-07-13T01:36:15;20.50;48.70
51029;DHT22;37054;52.054;8.600;2023-07-13T01:38:41;20.60;48.80
51029;DHT22;37054;52.054;8.600;2023-07-13T01:41:06;20.70;48.70
51029;DHT22;37054;52.054;8.600;2023-07-13T01:43:32;20.70;48.60
51029;DHT22;37054;52.054;8.600;2023-07-13T01:45:58;20.70;48.60
51029;DHT22;37054;52.054;8.600;2023-07-13T01:48:23;20.80;48.70
51029;DHT22;37054;52.054;8.600;2023-07-13T01:50:48;20.90;49.20
51029;DHT22;37054;52.054;8.600;2023-07-13T01:53:14;21.00;49.50
51029;DHT22;37054;52.054;8.600;2023-07-13T01:55:39;21.00;52.30
51029;DHT22;37054;52.054;8.600;2023-07-13T01:58:05;20.90;55.00
51029;DHT22;37054;52.054;8.600;2023-07-13T02:00:30;20.80;56.70
51029;DHT22;37054;52.054;8.600;2023-07-13T02:02:56;20.70;58.10
51029;DHT22;37054;52.054;8.600;2023-07-13T02:05:22;20.50;59.20
51029;DHT22;37054;52.054;8.600;2023-07-13T02:07:47;20.50;60.20
51029;DHT22;37054;52.054;8.600;2023-07-13T02:10:13;20.50;61.10
51029;DHT22;37054;52.054;8.600;2023-07-13T02:12:39;20.50;61.80
51029;DHT22;37054;52.054;8.600;2023-07-13T02:15:05;20.50;62.30
51029;DHT22;37054;52.054;8.600;2023-07-13T02:17:31;20.60;62.60
51029;DHT22;37054;52.054;8.600;2023-07-13T02:19:57;20.70;62.90
51029;DHT22;37054;52.054;8.600;2023-07-13T02:22:23;20.70;62.90
51029;DHT22;37054;52.054;8.600;2023-07-13T02:24:48;20.70;63.40
51029;DHT22;37054;52.054;8.600;2023-07-13T02:27:14;20.60;63.60
51029;DHT22;37054;52.054;8.600;2023-07-13T02:29:39;20.60;63.70
51029;DHT22;37054;52.054;8.600;2023-07-13T02:32:05;20.50;63.80
51029;DHT22;37054;52.054;8.600;2023-07-13T02:34:30;20.40;63.90
51029;DHT22;37054;52.054;8.600;2023-07-13T02:36:56;20.40;64.20
51029;DHT22;37054;52.054;8.600;2023-07-13T02:39:21;20.30;64.20
51029;DHT22;37054;52.054;8.600;2023-07-13T02:41:47;20.20;64.30
51029;DHT22;37054;52.054;8.600;2023-07-13T02:44:13;20.10;64.30
51029;DHT22;37054;52.054;8.600;2023-07-13T02:46:39;20.00;64.30
51029;DHT22;37054;52.054;8.600;2023-07-13T02:49:04;19.90;64.40
51029;DHT22;37054;52.054;8.600;2023-07-13T02:51:30;19.80;64.40
51029;DHT22;37054;52.054;8.600;2023-07-13T02:53:55;19.70;64.50
51029;DHT22;37054;52.054;8.600;2023-07-13T02:56:22;19.60;64.70
51029;DHT22;37054;52.054;8.600;2023-07-13T02:58:48;19.50;64.80
51029;DHT22;37054;52.054;8.600;2023-07-13T03:01:13;19.50;65.10
51029;DHT22;37054;52.054;8.600;2023-07-13T03:03:44;19.40;65.40
51029;DHT22;37054;52.054;8.600;2023-07-13T03:06:10;19.40;65.50
51029;DHT22;37054;52.054;8.600;2023-07-13T03:08:36;19.30;65.60
51029;DHT22;37054;52.054;8.600;2023-07-13T03:11:02;19.30;65.80
51029;DHT22;37054;52.054;8.600;2023-07-13T03:13:28;19.20;65.80
51029;DHT22;37054;52.054;8.600;2023-07-13T03:15:53;19.20;65.60
51029;DHT22;37054;52.054;8.600;2023-07-13T03:18:19;19.20;65.70
51029;DHT22;37054;52.054;8.600;2023-07-13T03:20:44;19.10;65.60
51029;DHT22;37054;52.054;8.600;2023-07-13T03:23:10;19.00;65.60
51029;DHT22;37054;52.054;8.600;2023-07-13T03:25:35;19.00;65.60
51029;DHT22;37054;52.054;8.600;2023-07-13T03:28:00;19.00;65.70
51029;DHT22;37054;52.054;8.600;2023-07-13T03:30:26;18.90;65.80
51029;DHT22;37054;52.054;8.600;2023-07-13T03:32:51;18.80;66.40
51029;DHT22;37054;52.054;8.600;2023-07-13T03:35:17;18.80;66.90
51029;DHT22;37054;52.054;8.600;2023-07-13T03:37:42;18.90;66.70
51029;DHT22;37054;52.054;8.600;2023-07-13T03:40:08;18.90;66.90
51029;DHT22;37054;52.054;8.600;2023-07-13T03:42:34;19.00;67.20
51029;DHT22;37054;52.054;8.600;2023-07-13T03:45:00;18.90;67.10
51029;DHT22;37054;52.054;8.600;2023-07-13T03:47:25;19.00;67.30
51029;DHT22;37054;52.054;8.600;2023-07-13T03:49:51;19.00;67.50
51029;DHT22;37054;52.054;8.600;2023-07-13T03:52:16;19.10;67.50
51029;DHT22;37054;52.054;8.600;2023-07-13T03:54:42;19.20;67.60
51029;DHT22;37054;52.054;8.600;2023-07-13T03:57:07;19.20;67.60
51029;DHT22;37054;52.054;8.600;2023-07-13T03:59:33;19.20;67.40
51029;DHT22;37054;52.054;8.600;2023-07-13T04:02:00;19.30;67.80
51029;DHT22;37054;52.054;8.600;2023-07-13T04:04:26;19.40;68.20
51029;DHT22;37054;52.054;8.600;2023-07-13T04:06:51;19.60;68.40
51029;DHT22;37054;52.054;8.600;2023-07-13T04:09:18;19.80;68.80
51029;DHT22;37054;52.054;8.600;2023-07-13T04:11:44;20.00;68.90
51029;DHT22;37054;52.054;8.600;2023-07-13T04:14:09;20.30;69.30
51029;DHT22;37054;52.054;8.600;2023-07-13T04:16:35;20.60;69.40
51029;DHT22;37054;52.054;8.600;2023-07-13T04:19:00;20.90;69.50
51029;DHT22;37054;52.054;8.600;2023-07-13T04:21:27;21.30;69.70
51029;DHT22;37054;52.054;8.600;2023-07-13T04:23:52;21.60;69.50
51029;DHT22;37054;52.054;8.600;2023-07-13T04:26:18;22.00;68.90
51029;DHT22;37054;52.054;8.600;2023-07-13T04:28:46;22.40;68.30
51029;DHT22;37054;52.054;8.600;2023-07-13T04:31:12;22.70;68.30
51029;DHT22;37054;52.054;8.600;2023-07-13T04:33:37;23.00;68.10
51029;DHT22;37054;52.054;8.600;2023-07-13T04:36:03;23.40;67.00
51029;DHT22;37054;52.054;8.600;2023-07-13T04:38:30;23.60;66.00
51029;DHT22;37054;52.054;8.600;2023-07-13T04:40:57;23.70;66.10
51029;DHT22;37054;52.054;8.600;2023-07-13T04:43:23;23.80;65.10
51029;DHT22;37054;52.054;8.600;2023-07-13T04:45:48;23.90;65.40
51029;DHT22;37054;52.054;8.600;2023-07-13T04:48:14;24.20;66.30
51029;DHT22;37054;52.054;8.600;2023-07-13T04:50:39;24.50;66.00
51029;DHT22;37054;52.054;8.600;2023-07-13T04:53:05;24.90;65.60
51029;DHT22;37054;52.054;8.600;2023-07-13T04:55:30;25.20;65.00
51029;DHT22;37054;52.054;8.600;2023-07-13T04:57:56;25.60;65.50
51029;DHT22;37054;52.054;8.600;2023-07-13T05:00:23;26.00;62.70
51029;DHT22;37054;52.054;8.600;2023-07-13T05:02:49;26.20;60.90
51029;DHT22;37054;52.054;8.600;2023-07-13T05:05:14;26.50;60.40
51029;DHT22;37054;52.054;8.600;2023-07-13T05:07:40;26.80;61.50
51029;DHT22;37054;52.054;8.600;2023-07-13T05:10:05;27.10;58.10
51029;DHT22;37054;52.054;8.600;2023-07-13T05:12:31;27.30;58.60
51029;DHT22;37054;52.054;8.600;2023-07-13T05:14:56;27.70;59.60
51029;DHT22;37054;52.054;8.600;2023-07-13T05:17:22;28.00;57.50
51029;DHT22;37054;52.054;8.600;2023-07-13T05:19:47;28.30;54.20
51029;DHT22;37054;52.054;8.600;2023-07-13T05:22:13;28.50;55.50
51029;DHT22;37054;52.054;8.600;2023-07-13T05:24:38;28.80;54.90
51029;DHT22;37054;52.054;8.600;2023-07-13T05:27:04;29.20;53.30
51029;DHT22;37054;52.054;8.600;2023-07-13T05:29:29;29.40;48.60
51029;DHT22;37054;52.054;8.600;2023-07-13T05:31:55;29.60;49.70
51029;DHT22;37054;52.054;8.600;2023-07-13T05:34:20;29.80;47.00
51029;DHT22;37054;52.054;8.600;2023-07-13T05:36:46;30.00;44.30
51029;DHT22;37054;52.054;8.600;2023-07-13T05:39:11;30.20;42.80
51029;DHT22;37054;52.054;8.600;2023-07-13T05:41:37;30.50;43.40
51029;DHT22;37054;52.054;8.600;2023-07-13T05:44:02;30.70;42.90
51029;DHT22;37054;52.054;8.600;2023-07-13T05:46:28;31.00;42.80
51029;DHT22;37054;52.054;8.600;2023-07-13T05:48:53;31.30;39.00
51029;DHT22;37054;52.054;8.600;2023-07-13T05:51:19;31.50;38.80
51029;DHT22;37054;52.054;8.600;2023-07-13T05:53:44;31.60;38.90
51029;DHT22;37054;52.054;8.600;2023-07-13T05:56:10;31.90;38.70
51029;DHT22;37054;52.054;8.600;2023-07-13T05:58:35;32.10;36.20
51029;DHT22;37054;52.054;8.600;2023-07-13T06:01:05;32.30;37.10
51029;DHT22;37054;52.054;8.600;2023-07-13T06:03:31;32.60;37.90
51029;DHT22;37054;52.054;8.600;2023-07-13T06:05:56;32.90;37.30
51029;DHT22;37054;52.054;8.600;2023-07-13T06:08:22;33.20;36.90
51029;DHT22;37054;52.054;8.600;2023-07-13T06:10:47;33.50;34.50
51029;DHT22;37054;52.054;8.600;2023-07-13T06:13:13;33.70;32.50
51029;DHT22;37054;52.054;8.600;2023-07-13T06:15:38;33.80;33.50
51029;DHT22;37054;52.054;8.600;2023-07-13T06:18:04;33.90;33.80
51029;DHT22;37054;52.054;8.600;2023-07-13T06:20:29;34.20;32.30
51029;DHT22;37054;52.054;8.600;2023-07-13T06:22:55;34.40;32.40
51029;DHT22;37054;52.054;8.600;2023-07-13T06:25:20;34.70;33.20
51029;DHT22;37054;52.054;8.600;2023-07-13T06:27:45;35.10;32.70
51029;DHT22;37054;52.054;8.600;2023-07-13T06:30:11;35.40;31.00
51029;DHT22;37054;52.054;8.600;2023-07-13T06:32:37;35.50;29.50
51029;DHT22;37054;52.054;8.600;2023-07-13T06:35:03;35.40;29.40
51029;DHT22;37054;52.054;8.600;2023-07-13T06:37:28;35.40;29.70
51029;DHT22;37054;52.054;8.600;2023-07-13T06:39:54;35.70;29.30
51029;DHT22;37054;52.054;8.600;2023-07-13T06:42:19;35.70;28.90
51029;DHT22;37054;52.054;8.600;2023-07-13T06:44:44;35.50;28.30
51029;DHT22;37054;52.054;8.600;2023-07-13T06:47:10;35.30;28.60
51029;DHT22;37054;52.054;8.600;2023-07-13T06:49:35;35.00;28.50
51029;DHT22;37054;52.054;8.600;2023-07-13T06:52:01;34.50;27.90
51029;DHT22;37054;52.054;8.600;2023-07-13T06:54:26;34.10;28.90
51029;DHT22;37054;52.054;8.600;2023-07-13T06:56:52;33.90;29.50
51029;DHT22;37054;52.054;8.600;2023-07-13T06:59:18;34.10;30.10
51029;DHT22;37054;52.054;8.600;2023-07-13T07:01:44;34.40;30.40
51029;DHT22;37054;52.054;8.600;2023-07-13T07:04:09;34.80;30.30
51029;DHT22;37054;52.054;8.600;2023-07-13T07:06:34;35.20;29.60
51029;DHT22;37054;52.054;8.600;2023-07-13T07:09:00;35.70;28.80
51029;DHT22;37054;52.054;8.600;2023-07-13T07:11:26;36.00;28.10
51029;DHT22;37054;52.054;8.600;2023-07-13T07:13:51;36.30;27.20
51029;DHT22;37054;52.054;8.600;2023-07-13T07:16:17;36.40;26.60
51029;DHT22;37054;52.054;8.600;2023-07-13T07:18:43;36.50;26.30
51029;DHT22;37054;52.054;8.600;2023-07-13T07:21:08;36.70;26.20
51029;DHT22;37054;52.054;8.600;2023-07-13T07:23:34;36.80;26.00
51029;DHT22;37054;52.054;8.600;2023-07-13T07:25:59;37.00;25.90
51029;DHT22;37054;52.054;8.600;2023-07-13T07:28:25;37.20;25.90
51029;DHT22;37054;52.054;8.600;2023-07-13T07:30:52;37.70;25.80
51029;DHT22;37054;52.054;8.600;2023-07-13T07:33:18;38.10;25.30
51029;DHT22;37054;52.054;8.600;2023-07-13T07:35:43;38.30;24.60
51029;DHT22;37054;52.054;8.600;2023-07-13T07:38:09;38.10;24.60
51029;DHT22;37054;52.054;8.600;2023-07-13T07:40:37;37.90;24.50
51029;DHT22;37054;52.054;8.600;2023-07-13T07:43:03;37.50;24.70
51029;DHT22;37054;52.054;8.600;2023-07-13T07:45:29;37.30;25.00
51029;DHT22;37054;52.054;8.600;2023-07-13T07:47:54;37.20;25.20
51029;DHT22;37054;52.054;8.600;2023-07-13T07:50:24;37.30;25.40
51029;DHT22;37054;52.054;8.600;2023-07-13T07:52:50;37.50;25.10
51029;DHT22;37054;52.054;8.600;2023-07-13T07:55:15;37.30;24.70
51029;DHT22;37054;52.054;8.600;2023-07-13T07:57:41;36.90;25.00
51029;DHT22;37054;52.054;8.600;2023-07-13T08:00:06;36.80;25.40
51029;DHT22;37054;52.054;8.600;2023-07-13T08:02:32;36.90;25.50
51029;DHT22;37054;52.054;8.600;2023-07-13T08:04:57;37.00;25.70
51029;DHT22;37054;52.054;8.600;2023-07-13T08:07:23;37.10;25.30
51029;DHT22;37054;52.054;8.600;2023-07-13T08:09:48;36.90;25.10
51029;DHT22;37054;52.054;8.600;2023-07-13T08:12:17;36.50;25.30
51029;DHT22;37054;52.054;8.600;2023-07-13T08:14:42;36.30;25.60
51029;DHT22;37054;52.054;8.600;2023-07-13T08:17:08;36.10;25.80
51029;DHT22;37054;52.054;8.600;2023-07-13T08:19:33;36.00;26.00
51029;DHT22;37054;52.054;8.600;2023-07-13T08:21:59;35.80;25.90
51029;DHT22;37054;52.054;8.600;2023-07-13T08:24:24;35.50;26.10
51029;DHT22;37054;52.054;8.600;2023-07-13T08:26:50;35.30;26.20
51029;DHT22;37054;52.054;8.600;2023-07-13T08:29:16;35.20;26.80
51029;DHT22;37054;52.054;8.600;2023-07-13T08:31:41;35.30;26.80
51029;DHT22;37054;52.054;8.600;2023-07-13T08:34:06;35.50;27.00
51029;DHT22;37054;52.054;8.600;2023-07-13T08:36:32;35.60;26.60
51029;DHT22;37054;52.054;8.600;2023-07-13T08:38:57;35.50;26.50
51029;DHT22;37054;52.054;8.600;2023-07-13T08:41:23;35.30;26.30
51029;DHT22;37054;52.054;8.600;2023-07-13T08:43:50;35.20;26.70
51029;DHT22;37054;52.054;8.600;2023-07-13T08:48:52;35.40;26.40
51029;DHT22;37054;52.054;8.600;2023-07-13T08:53:47;35.20;26.40
51029;DHT22;37054;52.054;8.600;2023-07-13T08:56:17;35.40;26.70
51029;DHT22;37054;52.054;8.600;2023-07-13T08:58:44;35.80;26.50
51029;DHT22;37054;52.054;8.600;2023-07-13T09:01:20;35.90;25.80
51029;DHT22;37054;52.054;8.600;2023-07-13T09:03:57;35.60;25.80
51029;DHT22;37054;52.054;8.600;2023-07-13T09:06:30;35.60;26.30
51029;DHT22;37054;52.054;8.600;2023-07-13T09:09:00;35.70;26.20
51029;DHT22;37054;52.054;8.600;2023-07-13T09:14:26;35.80;25.90
51029;DHT22;37054;52.054;8.600;2023-07-13T09:16:58;35.90;25.80
51029;DHT22;37054;52.054;8.600;2023-07-13T09:19:26;35.90;25.40
51029;DHT22;37054;52.054;8.600;2023-07-13T09:21:52;35.80;25.70
51029;DHT22;37054;52.054;8.600;2023-07-13T09:24:39;35.90;25.80
51029;DHT22;37054;52.054;8.600;2023-07-13T09:27:12;36.20;25.30
51029;DHT22;37054;52.054;8.600;2023-07-13T09:29:39;36.40;25.30
51029;DHT22;37054;52.054;8.600;2023-07-13T09:32:09;36.80;25.20
51029;DHT22;37054;52.054;8.600;2023-07-13T09:34:35;37.30;24.70
51029;DHT22;37054;52.054;8.600;2023-07-13T09:37:01;37.80;24.40
51029;DHT22;37054;52.054;8.600;2023-07-13T09:39:30;38.10;23.50
51029;DHT22;37054;52.054;8.600;2023-07-13T09:42:03;38.30;23.20
51029;DHT22;37054;52.054;8.600;2023-07-13T09:44:38;38.60;22.80
51029;DHT22;37054;52.054;8.600;2023-07-13T09:50:03;38.70;21.90
51029;DHT22;37054;52.054;8.600;2023-07-13T09:52:39;38.70;22.30
51029;DHT22;37054;52.054;8.600;2023-07-13T09:55:12;38.90;22.70
51029;DHT22;37054;52.054;8.600;2023-07-13T09:57:47;39.20;22.70
51029;DHT22;37054;52.054;8.600;2023-07-13T10:00:20;39.30;22.00
51029;DHT22;37054;52.054;8.600;2023-07-13T10:02:46;39.30;21.80
51029;DHT22;37054;52.054;8.600;2023-07-13T10:05:13;39.30;21.90
51029;DHT22;37054;52.054;8.600;2023-07-13T10:07:40;39.60;22.00
51029;DHT22;37054;52.054;8.600;2023-07-13T10:10:17;39.80;21.60
51029;DHT22;37054;52.054;8.600;2023-07-13T10:12:43;40.00;20.80
51029;DHT22;37054;52.054;8.600;2023-07-13T10:15:22;40.00;20.50
51029;DHT22;37054;52.054;8.600;2023-07-13T10:17:48;39.80;20.30
51029;DHT22;37054;52.054;8.600;2023-07-13T10:20:14;39.30;20.40
51029;DHT22;37054;52.054;8.600;2023-07-13T10:22:49;38.80;21.00
51029;DHT22;37054;52.054;8.600;2023-07-13T10:25:17;38.90;21.60
51029;DHT22;37054;52.054;8.600;2023-07-13T10:27:43;39.10;21.50
51029;DHT22;37054;52.054;8.600;2023-07-13T10:30:17;39.20;21.20
51029;DHT22;37054;52.054;8.600;2023-07-13T10:32:45;39.30;20.90
51029;DHT22;37054;52.054;8.600;2023-07-13T10:35:12;39.20;20.70
51029;DHT22;37054;52.054;8.600;2023-07-13T10:37:49;38.90;21.10
51029;DHT22;37054;52.054;8.600;2023-07-13T10:40:19;39.00;21.60
51029;DHT22;37054;52.054;8.600;2023-07-13T10:42:46;39.30;21.50
51029;DHT22;37054;52.054;8.600;2023-07-13T10:45:17;39.30;21.00
51029;DHT22;37054;52.054;8.600;2023-07-13T10:47:43;39.00;21.00
51029;DHT22;37054;52.054;8.600;2023-07-13T10:50:13;38.70;21.20
51029;DHT22;37054;52.054;8.600;2023-07-13T10:52:48;38.30;21.50
51029;DHT22;37054;52.054;8.600;2023-07-13T10:55:34;38.20;22.00
51029;DHT22;37054;52.054;8.600;2023-07-13T11:00:34;38.60;22.00
51029;DHT22;37054;52.054;8.600;2023-07-13T11:03:10;38.40;21.80
51029;DHT22;37054;52.054;8.600;2023-07-13T11:05:38;38.20;21.80
51029;DHT22;37054;52.054;8.600;2023-07-13T11:10:54;37.60;22.40
51029;DHT22;37054;52.054;8.600;2023-07-13T11:16:13;37.20;22.70
51029;DHT22;37054;52.054;8.600;2023-07-13T11:18:39;37.00;22.70
51029;DHT22;37054;52.054;8.600;2023-07-13T11:21:17;36.90;22.80
51029;DHT22;37054;52.054;8.600;2023-07-13T11:23:44;36.80;23.10
51029;DHT22;37054;52.054;8.600;2023-07-13T11:28:54;36.50;23.10
51029;DHT22;37054;52.054;8.600;2023-07-13T11:31:19;36.40;23.60
51029;DHT22;37054;52.054;8.600;2023-07-13T11:33:52;36.30;23.60
51029;DHT22;37054;52.054;8.600;2023-07-13T11:36:18;36.60;23.50
51029;DHT22;37054;52.054;8.600;2023-07-13T11:39:30;36.60;23.30
51029;DHT22;37054;52.054;8.600;2023-07-13T11:41:37;36.50;23.20
51029;DHT22;37054;52.054;8.600;2023-07-13T11:44:07;36.40;23.20
51029;DHT22;37054;52.054;8.600;2023-07-13T11:46:35;36.10;23.30
51029;DHT22;37054;52.054;8.600;2023-07-13T11:49:01;35.50;23.90
51029;DHT22;37054;52.054;8.600;2023-07-13T11:51:31;34.80;25.70
51029;DHT22;37054;52.054;8.600;2023-07-13T11:56:44;33.90;27.40
51029;DHT22;37054;52.054;8.600;2023-07-13T11:59:11;34.10;27.80
51029;DHT22;37054;52.054;8.600;2023-07-13T12:01:41;34.50;27.40
51029;DHT22;37054;52.054;8.600;2023-07-13T12:04:08;35.00;26.20
51029;DHT22;37054;52.054;8.600;2023-07-13T12:06:38;35.30;25.30
51029;DHT22;37054;52.054;8.600;2023-07-13T12:09:13;35.30;24.60
51029;DHT22;37054;52.054;8.600;2023-07-13T12:11:42;35.30;24.50
51029;DHT22;37054;52.054;8.600;2023-07-13T12:14:14;35.60;24.70
51029;DHT22;37054;52.054;8.600;2023-07-13T12:16:40;35.80;24.60
51029;DHT22;37054;52.054;8.600;2023-07-13T12:19:26;36.10;24.60
51029;DHT22;37054;52.054;8.600;2023-07-13T12:21:53;36.40;23.80
51029;DHT22;37054;52.054;8.600;2023-07-13T12:24:20;36.70;22.70
51029;DHT22;37054;52.054;8.600;2023-07-13T12:29:17;37.10;22.30
51029;DHT22;37054;52.054;8.600;2023-07-13T12:31:44;37.30;22.10
51029;DHT22;37054;52.054;8.600;2023-07-13T12:34:14;37.30;22.00
51029;DHT22;37054;52.054;8.600;2023-07-13T12:36:45;37.30;22.50
51029;DHT22;37054;52.054;8.600;2023-07-13T12:39:13;37.30;22.80
51029;DHT22;37054;52.054;8.600;2023-07-13T12:41:38;37.30;23.00
51029;DHT22;37054;52.054;8.600;2023-07-13T12:44:07;37.40;23.10
51029;DHT22;37054;52.054;8.600;2023-07-13T12:46:33;37.70;22.40
51029;DHT22;37054;52.054;8.600;2023-07-13T12:48:59;37.90;21.70
51029;DHT22;37054;52.054;8.600;2023-07-13T12:51:27;37.80;21.20
51029;DHT22;37054;52.054;8.600;2023-07-13T12:53:59;37.90;21.40
51029;DHT22;37054;52.054;8.600;2023-07-13T12:56:30;37.90;21.00
51029;DHT22;37054;52.054;8.600;2023-07-13T12:58:59;37.60;20.90
51029;DHT22;37054;52.054;8.600;2023-07-13T13:01:26;37.40;20.90
51029;DHT22;37054;52.054;8.600;2023-07-13T13:03:53;37.30;21.20
51029;DHT22;37054;52.054;8.600;2023-07-13T13:08:48;37.30;21.30
51029;DHT22;37054;52.054;8.600;2023-07-13T13:11:15;37.00;21.00
51029;DHT22;37054;52.054;8.600;2023-07-13T13:13:41;36.60;21.10
51029;DHT22;37054;52.054;8.600;2023-07-13T13:16:20;36.30;21.30
51029;DHT22;37054;52.054;8.600;2023-07-13T13:18:46;36.10;21.50
51029;DHT22;37054;52.054;8.600;2023-07-13T13:21:12;36.00;21.90
51029;DHT22;37054;52.054;8.600;2023-07-13T13:23:37;35.90;22.00
51029;DHT22;37054;52.054;8.600;2023-07-13T13:26:07;35.90;22.00
51029;DHT22;37054;52.054;8.600;2023-07-13T13:28:33;35.80;22.20
51029;DHT22;37054;52.054;8.600;2023-07-13T13:30:59;35.70;22.30
51029;DHT22;37054;52.054;8.600;2023-07-13T13:33:24;35.50;22.60
51029;DHT22;37054;52.054;8.600;2023-07-13T13:35:49;35.40;22.80
51029;DHT22;37054;52.054;8.600;2023-07-13T13:38:16;35.10;23.00
51029;DHT22;37054;52.054;8.600;2023-07-13T13:40:42;34.80;23.40
51029;DHT22;37054;52.054;8.600;2023-07-13T13:43:15;34.50;23.80
51029;DHT22;37054;52.054;8.600;2023-07-13T13:45:45;34.10;24.20
51029;DHT22;37054;52.054;8.600;2023-07-13T13:48:13;33.60;24.90
51029;DHT22;37054;52.054;8.600;2023-07-13T13:50:39;32.70;27.10
51029;DHT22;37054;52.054;8.600;2023-07-13T13:53:04;31.50;30.60
51029;DHT22;37054;52.054;8.600;2023-07-13T13:55:30;30.00;35.80
51029;DHT22;37054;52.054;8.600;2023-07-13T13:57:57;28.70;39.00
51029;DHT22;37054;52.054;8.600;2023-07-13T14:00:22;27.80;41.80
51029;DHT22;37054;52.054;8.600;2023-07-13T14:02:49;27.00;45.40
51029;DHT22;37054;52.054;8.600;2023-07-13T14:05:23;26.30;48.80
51029;DHT22;37054;52.054;8.600;2023-07-13T14:07:48;25.70;51.60
51029;DHT22;37054;52.054;8.600;2023-07-13T14:10:16;25.10;53.10
51029;DHT22;37054;52.054;8.600;2023-07-13T14:12:42;24.60;54.70
51029;DHT22;37054;52.054;8.600;2023-07-13T14:15:23;24.30;56.50
51029;DHT22;37054;52.054;8.600;2023-07-13T14:17:49;24.00;57.90
51029;DHT22;37054;52.054;8.600;2023-07-13T14:20:15;23.80;59.30
51029;DHT22;37054;52.054;8.600;2023-07-13T14:22:41;23.70;60.10
51029;DHT22;37054;52.054;8.600;2023-07-13T14:25:13;23.70;60.90
51029;DHT22;37054;52.054;8.600;2023-07-13T14:27:43;23.80;61.90
51029;DHT22;37054;52.054;8.600;2023-07-13T14:30:19;24.10;63.30
51029;DHT22;37054;52.054;8.600;2023-07-13T14:32:45;24.30;63.30
51029;DHT22;37054;52.054;8.600;2023-07-13T14:35:14;24.50;63.50
51029;DHT22;37054;52.054;8.600;2023-07-13T14:37:40;24.60;63.30
51029;DHT22;37054;52.054;8.600;2023-07-13T14:40:13;24.60;64.00
51029;DHT22;37054;52.054;8.600;2023-07-13T14:42:39;24.70;64.20
51029;DHT22;37054;52.054;8.600;2023-07-13T14:45:05;24.70;64.00
51029;DHT22;37054;52.054;8.600;2023-07-13T14:47:31;24.60;64.40
51029;DHT22;37054;52.054;8.600;2023-07-13T14:49:56;24.50;64.30
51029;DHT22;37054;52.054;8.600;2023-07-13T14:52:23;24.40;64.30
51029;DHT22;37054;52.054;8.600;2023-07-13T14:54:48;24.30;64.60
51029;DHT22;37054;52.054;8.600;2023-07-13T14:57:17;24.30;62.10
51029;DHT22;37054;52.054;8.600;2023-07-13T14:59:46;23.90;59.90
51029;DHT22;37054;52.054;8.600;2023-07-13T15:02:28;23.70;60.00
51029;DHT22;37054;52.054;8.600;2023-07-13T15:04:55;23.50;60.00
51029;DHT22;37054;52.054;8.600;2023-07-13T15:07:20;23.30;60.80
51029;DHT22;37054;52.054;8.600;2023-07-13T15:09:46;23.20;61.20
51029;DHT22;37054;52.054;8.600;2023-07-13T15:12:13;23.20;62.00
51029;DHT22;37054;52.054;8.600;2023-07-13T15:14:38;23.20;62.30
51029;DHT22;37054;52.054;8.600;2023-07-13T15:17:04;23.20;62.30
51029;DHT22;37054;52.054;8.600;2023-07-13T15:19:30;23.10;63.20
51029;DHT22;37054;52.054;8.600;2023-07-13T15:21:55;23.00;63.90
51029;DHT22;37054;52.054;8.600;2023-07-13T15:24:22;23.00;64.80
51029;DHT22;37054;52.054;8.600;2023-07-13T15:26:48;23.10;65.20
51029;DHT22;37054;52.054;8.600;2023-07-13T15:29:17;23.10;65.00
51029;DHT22;37054;52.054;8.600;2023-07-13T15:31:43;23.00;65.80
51029;DHT22;37054;52.054;8.600;2023-07-13T15:34:13;23.00;66.20
51029;DHT22;37054;52.054;8.600;2023-07-13T15:36:39;23.00;65.80
51029;DHT22;37054;52.054;8.600;2023-07-13T15:39:05;23.00;66.20
51029;DHT22;37054;52.054;8.600;2023-07-13T15:41:31;22.90;66.20
51029;DHT22;37054;52.054;8.600;2023-07-13T15:43:57;22.90;66.30
51029;DHT22;37054;52.054;8.600;2023-07-13T15:46:26;22.90;66.90
51029;DHT22;37054;52.054;8.600;2023-07-13T15:48:53;22.90;66.80
51029;DHT22;37054;52.054;8.600;2023-07-13T15:51:23;22.90;66.60
51029;DHT22;37054;52.054;8.600;2023-07-13T15:53:49;22.90;66.70
51029;DHT22;37054;52.054;8.600;2023-07-13T15:56:19;22.80;66.80
51029;DHT22;37054;52.054;8.600;2023-07-13T15:58:44;22.80;66.80